createdAt,value
2023-02-16T00:00:19.564Z,16.17
2023-02-16T00:02:42.106Z,14.10
2023-02-16T00:04:44.981Z,16.03
2023-02-16T00:06:47.829Z,15.90
2023-02-16T00:08:52.870Z,15.07
2023-02-16T00:11:13.691Z,14.80
2023-02-16T00:13:43.542Z,15.60
2023-02-16T00:15:46.063Z,14.60
2023-02-16T00:17:48.805Z,14.53
2023-02-16T00:19:51.333Z,14.97
2023-02-16T00:21:55.653Z,13.77
2023-02-16T00:23:58.088Z,14.83
2023-02-16T00:26:02.111Z,13.47
2023-02-16T00:28:11.783Z,13.87
2023-02-16T00:30:20.982Z,14.38
2023-02-16T00:32:23.632Z,12.50
2023-02-16T00:34:37.693Z,14.37
2023-02-16T00:36:40.227Z,12.00
2023-02-16T00:38:43.059Z,12.00
2023-02-16T00:40:45.751Z,12.63
2023-02-16T00:42:48.634Z,11.90
2023-02-16T00:44:55.236Z,10.97
2023-02-16T00:46:58.237Z,12.47
2023-02-16T00:49:00.726Z,11.83
2023-02-16T00:51:13.790Z,12.47
2023-02-16T00:53:22.918Z,11.15
2023-02-16T00:55:28.689Z,11.47
2023-02-16T00:57:35.698Z,12.10
2023-02-16T00:59:38.503Z,12.40
2023-02-16T01:01:41.104Z,12.10
2023-02-16T01:03:44.515Z,10.70
2023-02-16T01:05:47.124Z,10.70
2023-02-16T01:08:08.593Z,11.33
2023-02-16T01:10:32.668Z,11.23
2023-02-16T01:12:35.464Z,10.40
2023-02-16T01:14:37.934Z,12.23
2023-02-16T01:16:42.263Z,10.70
2023-02-16T01:18:44.870Z,9.53
2023-02-16T01:20:48.350Z,10.73
2023-02-16T01:22:51.021Z,12.40
2023-02-16T01:24:53.815Z,11.30
2023-02-16T01:26:55.946Z,11.53
2023-02-16T01:28:58.712Z,10.43
2023-02-16T01:31:01.441Z,11.73
2023-02-16T01:33:04.063Z,11.83
2023-02-16T01:35:06.811Z,12.87
2023-02-16T01:37:16.551Z,10.47
2023-02-16T01:39:20.551Z,10.45
2023-02-16T01:41:23.288Z,11.33
2023-02-16T01:43:27.360Z,11.90
2023-02-16T01:45:40.679Z,12.33
2023-02-16T01:47:53.752Z,11.83
2023-02-16T01:49:56.527Z,11.50
2023-02-16T01:52:25.634Z,11.63
2023-02-16T01:54:40.613Z,10.95
2023-02-16T01:56:58.193Z,10.63
2023-02-16T01:59:21.799Z,12.43
2023-02-16T02:01:43.801Z,11.27
2023-02-16T02:04:04.935Z,12.30
2023-02-16T02:06:13.928Z,11.13
2023-02-16T02:08:22.442Z,11.73
2023-02-16T02:10:48.633Z,13.90
2023-02-16T02:13:04.403Z,12.03
2023-02-16T02:15:09.051Z,11.27
2023-02-16T02:17:17.467Z,11.07
2023-02-16T02:19:19.899Z,11.03
2023-02-16T02:21:41.100Z,10.80
2023-02-16T02:23:44.034Z,12.57
2023-02-16T02:26:04.504Z,11.27
2023-02-16T02:30:32.052Z,12.13
2023-02-16T02:32:40.189Z,12.40
2023-02-16T02:35:20.564Z,11.67
2023-02-16T02:40:27.213Z,13.13
2023-02-16T02:42:29.635Z,12.13
2023-02-16T02:44:39.684Z,13.80
2023-02-16T02:46:42.529Z,13.45
2023-02-16T02:48:45.334Z,12.40
2023-02-16T02:51:12.585Z,13.87
2023-02-16T02:53:16.360Z,13.37
2023-02-16T02:55:37.945Z,13.17
2023-02-16T02:58:03.711Z,13.63
2023-02-16T03:00:29.551Z,13.50
2023-02-16T03:02:37.320Z,13.77
2023-02-16T03:04:40.165Z,14.43
2023-02-16T03:06:47.351Z,12.70
2023-02-16T03:08:55.741Z,14.87
2023-02-16T03:11:23.987Z,14.03
2023-02-16T03:13:33.663Z,14.60
2023-02-16T03:15:38.121Z,13.23
2023-02-16T03:17:59.967Z,13.10
2023-02-16T03:20:25.408Z,13.30
2023-02-16T03:22:46.782Z,14.83
2023-02-16T03:25:08.116Z,16.13
2023-02-16T03:27:29.459Z,13.63
2023-02-16T03:29:33.450Z,15.77
2023-02-16T03:31:38.965Z,12.60
2023-02-16T03:33:41.998Z,14.87
2023-02-16T03:35:45.351Z,15.00
2023-02-16T03:37:48.424Z,14.07
2023-02-16T03:40:09.070Z,14.27
2023-02-16T03:42:12.381Z,14.10
2023-02-16T03:44:15.014Z,15.17
2023-02-16T03:46:18.046Z,14.10
2023-02-16T03:48:23.298Z,14.57
2023-02-16T03:50:27.198Z,15.00
2023-02-16T03:52:29.657Z,15.20
2023-02-16T03:54:33.236Z,13.80
2023-02-16T03:56:35.757Z,15.20
2023-02-16T03:58:38.560Z,14.87
2023-02-16T04:00:41.354Z,14.83
2023-02-16T04:02:44.072Z,15.87
2023-02-16T04:04:46.793Z,14.37
2023-02-16T04:06:49.606Z,15.23
2023-02-16T04:08:51.770Z,16.07
2023-02-16T04:10:56.932Z,13.93
2023-02-16T04:12:59.388Z,14.23
2023-02-16T04:15:02.185Z,13.37
2023-02-16T04:17:04.782Z,14.50
2023-02-16T04:19:08.019Z,16.07
2023-02-16T04:21:13.191Z,14.27
2023-02-16T04:23:15.924Z,16.43
2023-02-16T04:25:18.992Z,15.97
2023-02-16T04:27:21.402Z,15.23
2023-02-16T04:29:23.881Z,15.70
2023-02-16T04:31:26.750Z,17.07
2023-02-16T04:33:29.255Z,15.50
2023-02-16T04:35:31.956Z,14.33
2023-02-16T04:37:34.661Z,16.17
2023-02-16T04:39:37.600Z,15.93
2023-02-16T04:41:40.096Z,16.50
2023-02-16T04:43:42.845Z,15.43
2023-02-16T04:45:45.410Z,17.63
2023-02-16T04:47:48.281Z,16.60
2023-02-16T04:49:50.723Z,16.17
2023-02-16T04:51:53.433Z,15.23
2023-02-16T04:53:55.899Z,15.67
2023-02-16T04:55:58.683Z,15.10
2023-02-16T04:58:01.154Z,16.27
2023-02-16T05:00:05.314Z,16.93
2023-02-16T05:02:07.825Z,16.73
2023-02-16T05:04:10.639Z,16.20
2023-02-16T05:06:13.123Z,14.90
2023-02-16T05:08:15.847Z,16.17
2023-02-16T05:10:19.895Z,14.23
2023-02-16T05:12:41.400Z,16.03
2023-02-16T05:14:47.033Z,15.37
2023-02-16T05:16:51.060Z,15.43
2023-02-16T05:18:53.664Z,16.87
2023-02-16T05:21:15.031Z,16.00
2023-02-16T05:23:17.488Z,15.43
2023-02-16T05:25:21.168Z,15.50
2023-02-16T05:27:25.902Z,17.23
2023-02-16T05:29:28.741Z,16.67
2023-02-16T05:31:34.828Z,17.23
2023-02-16T05:33:37.701Z,16.30
2023-02-16T05:35:40.225Z,17.17
2023-02-16T05:37:43.086Z,15.87
2023-02-16T05:39:45.739Z,15.50
2023-02-16T05:41:48.603Z,14.77
2023-02-16T05:43:59.507Z,17.27
2023-02-16T05:46:08.416Z,16.23
2023-02-16T05:48:10.991Z,16.77
2023-02-16T05:50:13.753Z,16.63
2023-02-16T05:52:16.225Z,15.03
2023-02-16T05:54:18.964Z,15.50
2023-02-16T05:56:21.484Z,17.57
2023-02-16T05:58:24.230Z,17.27
2023-02-16T06:00:27.104Z,16.93
2023-02-16T06:02:30.305Z,16.50
2023-02-16T06:04:32.876Z,16.67
2023-02-16T06:06:37.065Z,15.83
2023-02-16T06:08:39.608Z,17.57
2023-02-16T06:10:42.464Z,15.07
2023-02-16T06:12:45.212Z,16.70
2023-02-16T06:14:47.964Z,17.23
2023-02-16T06:16:54.469Z,17.00
2023-02-16T06:18:57.761Z,16.67
2023-02-16T06:21:00.270Z,16.13
2023-02-16T06:23:03.056Z,16.47
2023-02-16T06:25:05.665Z,16.50
2023-02-16T06:27:08.252Z,15.53
2023-02-16T06:29:11.146Z,16.23
2023-02-16T06:31:14.114Z,15.82
2023-02-16T06:33:16.636Z,16.73
2023-02-16T06:35:19.728Z,15.82
2023-02-16T06:37:22.403Z,16.98
2023-02-16T06:39:25.179Z,14.82
2023-02-16T06:41:38.058Z,17.42
2023-02-16T06:43:42.698Z,17.60
2023-02-16T06:45:45.357Z,17.58
2023-02-16T06:47:48.171Z,18.00
2023-02-16T06:49:50.615Z,16.83
2023-02-16T06:51:53.560Z,17.38
2023-02-16T06:53:55.986Z,17.38
2023-02-16T06:55:58.752Z,18.75
2023-02-16T06:58:01.773Z,19.45
2023-02-16T07:00:06.780Z,17.75
2023-02-16T07:02:10.163Z,19.88
2023-02-16T07:04:13.819Z,19.38
2023-02-16T07:06:16.414Z,18.25
2023-02-16T07:08:19.208Z,17.83
2023-02-16T07:10:21.727Z,19.33
2023-02-16T07:12:24.502Z,18.95
2023-02-16T07:14:27.002Z,19.08
2023-02-16T07:16:29.851Z,18.70
2023-02-16T07:18:32.558Z,20.80
2023-02-16T07:20:35.273Z,21.08
2023-02-16T07:22:37.749Z,20.85
2023-02-16T07:24:40.691Z,23.70
2023-02-16T07:26:43.372Z,22.08
2023-02-16T07:28:46.135Z,22.60
2023-02-16T07:30:48.915Z,23.52
2023-02-16T07:32:51.744Z,21.85
2023-02-16T07:34:54.269Z,24.02
2023-02-16T07:36:57.169Z,24.05
2023-02-16T07:38:59.285Z,21.90
2023-02-16T07:41:02.080Z,25.42
2023-02-16T07:43:06.080Z,23.88
2023-02-16T07:45:08.919Z,25.25
2023-02-16T07:47:11.052Z,24.98
2023-02-16T07:49:13.524Z,23.52
2023-02-16T07:51:27.399Z,24.02
2023-02-16T07:53:29.807Z,24.60
2023-02-16T07:55:32.324Z,22.77
2023-02-16T07:57:34.717Z,24.58
2023-02-16T07:59:36.776Z,23.73
2023-02-16T08:01:40.105Z,22.20
2023-02-16T08:03:42.304Z,23.88
2023-02-16T08:05:44.769Z,21.60
2023-02-16T08:07:47.920Z,23.50
2023-02-16T08:09:50.799Z,23.92
2023-02-16T08:11:53.278Z,23.05
2023-02-16T08:13:56.084Z,21.55
2023-02-16T08:15:58.531Z,23.55
2023-02-16T08:18:01.294Z,21.83
2023-02-16T08:20:05.123Z,22.80
2023-02-16T08:22:08.532Z,22.88
2023-02-16T08:24:13.345Z,23.33
2023-02-16T08:26:17.736Z,22.63
2023-02-16T08:28:22.177Z,24.40
2023-02-16T08:30:25.440Z,21.58
2023-02-16T08:32:27.935Z,24.15
2023-02-16T08:34:30.690Z,25.15
2023-02-16T08:36:36.126Z,23.92
2023-02-16T08:38:43.328Z,24.17
2023-02-16T08:40:49.857Z,24.42
2023-02-16T08:42:52.637Z,24.02
2023-02-16T08:44:55.711Z,24.33
2023-02-16T08:47:00.900Z,23.35
2023-02-16T08:49:04.266Z,24.15
2023-02-16T08:51:07.865Z,24.67
2023-02-16T08:53:11.392Z,25.55
2023-02-16T08:55:14.076Z,24.33
2023-02-16T08:57:16.343Z,26.25
2023-02-16T08:59:21.667Z,23.05
2023-02-16T09:01:24.205Z,23.60
2023-02-16T09:03:26.811Z,24.05
2023-02-16T09:05:29.575Z,24.80
2023-02-16T09:07:35.107Z,25.60
2023-02-16T09:09:37.660Z,24.55
2023-02-16T09:11:40.374Z,24.10
2023-02-16T09:13:43.489Z,24.13
2023-02-16T09:15:47.438Z,23.13
2023-02-16T09:17:50.846Z,23.63
2023-02-16T09:19:53.403Z,23.33
2023-02-16T09:21:57.213Z,23.25
2023-02-16T09:24:03.993Z,24.33
2023-02-16T09:26:07.785Z,24.85
2023-02-16T09:28:11.141Z,21.55
2023-02-16T09:30:14.012Z,24.35
2023-02-16T09:32:17.278Z,23.15
2023-02-16T09:34:22.141Z,23.88
2023-02-16T09:36:25.012Z,24.60
2023-02-16T09:38:30.464Z,25.38
2023-02-16T09:40:33.060Z,25.90
2023-02-16T09:43:07.403Z,25.58
2023-02-16T09:45:14.021Z,22.88
2023-02-16T09:47:31.056Z,23.08
2023-02-16T09:49:38.855Z,24.08
2023-02-16T09:51:41.473Z,26.67
2023-02-16T09:53:45.166Z,25.40
2023-02-16T09:56:07.024Z,24.45
2023-02-16T09:58:20.510Z,24.98
2023-02-16T10:00:34.588Z,23.85
2023-02-16T10:03:03.103Z,23.20
2023-02-16T10:05:08.594Z,22.77
2023-02-16T10:07:53.353Z,22.63
2023-02-16T10:09:57.145Z,22.95
2023-02-16T10:12:11.612Z,22.90
2023-02-16T10:14:24.840Z,21.40
2023-02-16T10:16:39.052Z,23.58
2023-02-16T10:18:45.100Z,21.02
2023-02-16T10:20:52.364Z,22.35
2023-02-16T10:23:17.077Z,20.42
2023-02-16T10:25:27.180Z,22.17
2023-02-16T10:27:38.254Z,21.40
2023-02-16T10:29:40.739Z,21.92
2023-02-16T10:31:55.580Z,20.95
2023-02-16T10:34:18.522Z,23.25
2023-02-16T10:36:48.060Z,21.27
2023-02-16T10:39:00.688Z,22.08
2023-02-16T10:41:22.175Z,22.23
2023-02-16T10:43:51.966Z,21.67
2023-02-16T10:47:59.627Z,21.85
2023-02-16T10:50:02.995Z,22.00
2023-02-16T10:52:07.704Z,21.95
2023-02-16T10:54:31.878Z,22.90
2023-02-16T10:56:46.569Z,22.75
2023-02-16T10:58:51.074Z,21.55
2023-02-16T11:01:01.094Z,22.40
2023-02-16T11:03:04.036Z,22.25
2023-02-16T11:05:29.687Z,21.20
2023-02-16T11:07:33.935Z,23.15
2023-02-16T11:09:37.215Z,21.67
2023-02-16T11:11:42.670Z,21.52
2023-02-16T11:13:49.310Z,22.30
2023-02-16T11:15:54.888Z,20.10
2023-02-16T11:18:06.216Z,20.80
2023-02-16T11:20:24.588Z,20.95
2023-02-16T11:22:37.037Z,20.25
2023-02-16T11:24:39.487Z,20.50
2023-02-16T11:26:41.883Z,22.20
2023-02-16T11:28:46.611Z,21.13
2023-02-16T11:30:48.716Z,20.70
2023-02-16T11:32:52.100Z,20.60
2023-02-16T11:34:54.332Z,19.88
2023-02-16T11:37:20.063Z,19.77
2023-02-16T11:39:24.681Z,21.25
2023-02-16T11:41:28.737Z,20.52
2023-02-16T11:43:37.468Z,21.40
2023-02-16T11:45:41.372Z,21.83
2023-02-16T11:47:43.480Z,20.42
2023-02-16T11:49:46.022Z,19.83
2023-02-16T11:51:48.065Z,19.67
2023-02-16T11:54:01.201Z,22.08
2023-02-16T11:56:31.635Z,23.08
2023-02-16T11:58:34.030Z,23.38
2023-02-16T12:00:36.215Z,21.23
2023-02-16T12:02:58.518Z,24.10
2023-02-16T12:05:26.711Z,22.75
2023-02-16T12:08:04.399Z,23.60
2023-02-16T12:10:11.152Z,22.77
2023-02-16T12:12:24.668Z,23.75
2023-02-16T12:14:42.320Z,23.38
2023-02-16T12:17:27.982Z,23.23
2023-02-16T12:19:44.408Z,23.67
2023-02-16T12:22:22.131Z,23.40
2023-02-16T12:25:01.965Z,23.00
2023-02-16T12:29:45.780Z,22.20
2023-02-16T12:31:50.888Z,23.30
2023-02-16T12:34:25.304Z,22.98
2023-02-16T12:37:11.957Z,22.30
2023-02-16T12:39:29.846Z,23.48
2023-02-16T12:41:54.871Z,22.05
2023-02-16T12:44:16.256Z,21.58
2023-02-16T12:46:29.707Z,22.70
2023-02-16T12:48:50.863Z,23.60
2023-02-16T12:50:55.741Z,20.63
2023-02-16T12:53:05.800Z,21.63
2023-02-16T12:55:29.612Z,21.20
2023-02-16T12:57:32.054Z,20.67
2023-02-16T12:59:56.435Z,20.92
2023-02-16T13:02:00.281Z,22.13
2023-02-16T13:04:37.964Z,20.17
2023-02-16T13:07:09.554Z,21.45
2023-02-16T13:09:24.790Z,20.70
2023-02-16T13:11:52.573Z,21.10
2023-02-16T13:14:01.668Z,22.02
2023-02-16T13:16:29.511Z,19.60
2023-02-16T13:18:38.336Z,18.25
2023-02-16T13:20:45.878Z,20.23
2023-02-16T13:23:24.863Z,20.27
2023-02-16T13:26:01.913Z,20.42
2023-02-16T13:28:04.285Z,21.02
2023-02-16T13:30:30.964Z,21.73
2023-02-16T13:33:04.735Z,22.00
2023-02-16T13:35:27.708Z,21.42
2023-02-16T13:37:35.915Z,21.05
2023-02-16T13:40:00.830Z,20.52
2023-02-16T13:42:15.651Z,22.10
2023-02-16T13:44:22.997Z,20.08
2023-02-16T13:46:32.918Z,19.42
2023-02-16T13:48:46.414Z,21.63
2023-02-16T13:50:57.193Z,20.38
2023-02-16T13:53:16.720Z,22.02
2023-02-16T13:55:38.685Z,22.70
2023-02-16T13:57:50.603Z,20.80
2023-02-16T14:00:05.769Z,20.95
2023-02-16T14:02:12.841Z,20.50
2023-02-16T14:04:24.887Z,22.90
2023-02-16T14:06:27.276Z,21.38
2023-02-16T14:08:31.453Z,21.77
2023-02-16T14:10:54.338Z,21.27
2023-02-16T14:12:56.748Z,21.52
2023-02-16T14:15:05.403Z,22.77
2023-02-16T14:17:20.036Z,21.08
2023-02-16T14:19:26.858Z,20.15
2023-02-16T14:21:42.963Z,22.67
2023-02-16T14:23:46.367Z,22.58
2023-02-16T14:25:48.793Z,19.92
2023-02-16T14:28:05.468Z,21.55
2023-02-16T14:30:35.602Z,22.02
2023-02-16T14:32:38.709Z,22.00
2023-02-16T14:34:48.328Z,21.25
2023-02-16T14:37:16.213Z,22.75
2023-02-16T14:39:22.817Z,21.42
2023-02-16T14:41:27.723Z,22.05
2023-02-16T14:43:45.031Z,22.50
2023-02-16T14:45:55.138Z,20.88
2023-02-16T14:48:26.857Z,21.55
2023-02-16T14:50:42.857Z,21.42
2023-02-16T14:52:48.479Z,21.25
2023-02-16T14:55:09.065Z,20.55
2023-02-16T14:57:16.134Z,21.42
2023-02-16T14:59:34.753Z,21.83
2023-02-16T15:01:46.034Z,19.80
2023-02-16T15:03:50.865Z,20.98
2023-02-16T15:06:04.317Z,22.30
2023-02-16T15:08:48.574Z,20.80
2023-02-16T15:10:56.260Z,23.33
2023-02-16T15:12:58.904Z,22.58
2023-02-16T15:15:04.598Z,21.65
2023-02-16T15:17:08.292Z,23.50
2023-02-16T15:19:23.134Z,22.50
2023-02-16T15:21:30.831Z,23.02
2023-02-16T15:23:35.674Z,21.90
2023-02-16T15:25:39.319Z,22.92
2023-02-16T15:27:42.360Z,21.50
2023-02-16T15:29:44.434Z,19.38
2023-02-16T15:31:47.399Z,21.58
2023-02-16T15:33:58.837Z,18.40
2023-02-16T15:36:24.442Z,19.92
2023-02-16T15:38:57.616Z,19.90
2023-02-16T15:41:03.550Z,19.60
2023-02-16T15:43:27.211Z,18.25
2023-02-16T15:45:38.195Z,20.38
2023-02-16T15:47:44.688Z,17.60
2023-02-16T15:49:48.761Z,20.35
2023-02-16T15:51:50.835Z,21.85
2023-02-16T15:54:04.949Z,20.95
2023-02-16T15:56:31.291Z,21.60
2023-02-16T15:58:33.996Z,22.05
2023-02-16T16:00:36.125Z,22.27
2023-02-16T16:02:44.223Z,21.20
2023-02-16T16:04:56.467Z,21.65
2023-02-16T16:07:00.554Z,22.00
2023-02-16T16:09:08.669Z,21.42
2023-02-16T16:11:11.666Z,22.10
2023-02-16T16:13:20.762Z,21.63
2023-02-16T16:15:26.485Z,22.35
2023-02-16T16:17:32.627Z,22.08
2023-02-16T16:19:38.260Z,19.83
2023-02-16T16:21:52.050Z,23.15
2023-02-16T16:24:03.689Z,22.35
2023-02-16T16:26:23.609Z,21.80
2023-02-16T16:28:28.949Z,22.15
2023-02-16T16:30:33.707Z,23.23
2023-02-16T16:32:38.274Z,20.42
2023-02-16T16:34:41.222Z,23.30
2023-02-16T16:36:56.596Z,20.55
2023-02-16T16:39:16.818Z,19.98
2023-02-16T16:41:28.229Z,19.35
2023-02-16T16:43:32.878Z,20.88
2023-02-16T16:45:42.468Z,20.90
2023-02-16T16:47:51.397Z,22.63
2023-02-16T16:49:58.365Z,19.65
2023-02-16T16:52:00.455Z,21.63
2023-02-16T16:54:05.663Z,22.73
2023-02-16T16:56:13.794Z,22.20
2023-02-16T16:58:17.635Z,25.80
2023-02-16T17:00:23.734Z,20.23
2023-02-16T17:02:26.187Z,21.80
2023-02-16T17:04:28.445Z,21.23
2023-02-16T17:06:31.033Z,22.15
2023-02-16T17:08:33.159Z,20.88
2023-02-16T17:10:40.100Z,20.85
2023-02-16T17:12:42.441Z,18.50
2023-02-16T17:14:45.137Z,20.45
2023-02-16T17:16:51.707Z,20.38
2023-02-16T17:18:54.345Z,19.63
2023-02-16T17:20:56.713Z,19.98
2023-02-16T17:23:04.611Z,19.90
2023-02-16T17:25:07.145Z,20.80
2023-02-16T17:27:10.254Z,22.40
2023-02-16T17:29:12.476Z,22.77
2023-02-16T17:31:14.940Z,22.60
2023-02-16T17:33:17.057Z,25.42
2023-02-16T17:35:22.358Z,23.10
2023-02-16T17:37:25.279Z,27.48
2023-02-16T17:39:27.670Z,23.45
2023-02-16T17:41:30.042Z,27.02
2023-02-16T17:43:32.452Z,24.95
2023-02-16T17:45:34.632Z,26.08
2023-02-16T17:47:37.396Z,26.45
2023-02-16T17:49:39.510Z,27.92
2023-02-16T17:51:44.363Z,25.65
2023-02-16T17:53:46.701Z,25.75
2023-02-16T17:55:51.872Z,27.05
2023-02-16T17:57:55.821Z,28.67
2023-02-16T17:59:58.425Z,27.50
2023-02-16T18:02:00.591Z,28.35
2023-02-16T18:06:59.330Z,26.60
2023-02-16T18:09:01.790Z,27.48
2023-02-16T18:11:04.041Z,27.38
2023-02-16T18:13:07.853Z,27.50
2023-02-16T18:15:10.140Z,28.55
2023-02-16T18:17:13.378Z,26.67
2023-02-16T18:19:15.682Z,28.40
2023-02-16T18:21:20.048Z,26.48
2023-02-16T18:23:22.164Z,25.27
2023-02-16T18:25:24.576Z,24.80
2023-02-16T18:27:28.556Z,24.65
2023-02-16T18:29:32.104Z,26.38
2023-02-16T18:31:34.329Z,24.08
2023-02-16T18:33:36.829Z,22.08
2023-02-16T18:35:39.038Z,23.27
2023-02-16T18:37:42.175Z,22.73
2023-02-16T18:39:44.319Z,24.40
2023-02-16T18:41:46.891Z,24.20
2023-02-16T18:43:49.022Z,25.17
2023-02-16T18:45:51.621Z,25.10
2023-02-16T18:47:53.746Z,21.67
2023-02-16T18:49:56.422Z,22.83
2023-02-16T18:51:59.118Z,23.70
2023-02-16T18:54:01.516Z,24.38
2023-02-16T18:56:05.870Z,21.67
2023-02-16T18:58:08.781Z,24.10
2023-02-16T19:00:12.864Z,21.90
2023-02-16T19:02:15.994Z,22.13
2023-02-16T19:04:22.952Z,20.63
2023-02-16T19:06:28.053Z,22.52
2023-02-16T19:08:30.186Z,20.48
2023-02-16T19:10:33.454Z,20.25
2023-02-16T19:12:35.874Z,20.75
2023-02-16T19:14:38.305Z,21.25
2023-02-16T19:16:41.228Z,20.02
2023-02-16T19:18:43.751Z,21.77
2023-02-16T19:20:45.941Z,21.63
2023-02-16T19:22:49.249Z,20.95
2023-02-16T19:24:51.358Z,21.60
2023-02-16T19:26:54.002Z,22.52
2023-02-16T19:28:56.070Z,22.30
2023-02-16T19:31:03.540Z,21.77
2023-02-16T19:33:05.756Z,22.98
2023-02-16T19:35:12.138Z,22.42
2023-02-16T19:37:14.351Z,20.45
2023-02-16T19:39:16.902Z,20.15
2023-02-16T19:41:25.664Z,19.75
2023-02-16T19:43:28.031Z,20.45
2023-02-16T19:45:30.183Z,20.77
2023-02-16T19:47:33.000Z,19.00
2023-02-16T19:49:36.568Z,20.50
2023-02-16T19:51:39.179Z,20.63
2023-02-16T19:53:42.306Z,20.92
2023-02-16T19:55:44.855Z,20.50
2023-02-16T19:57:46.926Z,19.85
2023-02-16T19:59:49.364Z,19.35
2023-02-16T20:01:51.602Z,18.05
2023-02-16T20:03:56.081Z,20.13
2023-02-16T20:05:58.215Z,20.08
2023-02-16T20:08:00.838Z,20.67
2023-02-16T20:10:03.188Z,19.25
2023-02-16T20:12:06.168Z,17.38
2023-02-16T20:14:08.822Z,19.52
2023-02-16T20:16:12.978Z,19.08
2023-02-16T20:18:15.187Z,19.77
2023-02-16T20:20:18.048Z,18.75
2023-02-16T20:22:20.153Z,20.00
2023-02-16T20:24:22.826Z,19.15
2023-02-16T20:26:28.360Z,19.23
2023-02-16T20:31:30.458Z,17.92
2023-02-16T20:33:33.403Z,19.25
2023-02-16T20:35:35.655Z,19.33
2023-02-16T20:37:38.151Z,19.35
2023-02-16T20:39:40.242Z,18.67
2023-02-16T20:41:43.152Z,20.35
2023-02-16T20:43:45.780Z,19.13
2023-02-16T20:45:48.891Z,18.75
2023-02-16T20:47:51.094Z,19.63
2023-02-16T20:49:53.676Z,20.30
2023-02-16T20:51:56.796Z,18.80
2023-02-16T20:54:00.437Z,20.35
2023-02-16T20:56:06.077Z,19.80
2023-02-16T20:58:11.457Z,19.50
2023-02-16T21:00:19.000Z,20.25
2023-02-16T21:02:21.482Z,22.67
2023-02-16T21:04:23.960Z,18.15
2023-02-16T21:06:27.434Z,18.92
2023-02-16T21:08:29.580Z,20.02
2023-02-16T21:10:32.115Z,21.02
2023-02-16T21:12:34.624Z,21.55
2023-02-16T21:14:37.101Z,22.25
2023-02-16T21:16:41.038Z,21.08
2023-02-16T21:18:44.183Z,20.58
2023-02-16T21:20:46.653Z,21.48
2023-02-16T21:22:49.771Z,21.50
2023-02-16T21:25:14.190Z,22.35
2023-02-16T21:27:17.117Z,21.20
2023-02-16T21:29:19.264Z,22.02
2023-02-16T21:31:24.509Z,20.10
2023-02-16T21:33:27.254Z,23.42
2023-02-16T21:35:29.731Z,22.08
2023-02-16T21:37:31.911Z,19.42
2023-02-16T21:39:52.904Z,19.85
2023-02-16T21:41:55.029Z,19.30
2023-02-16T21:44:00.827Z,18.70
2023-02-16T21:46:03.221Z,20.75
2023-02-16T21:48:24.439Z,19.23
2023-02-16T21:50:27.770Z,17.65
2023-02-16T21:52:36.250Z,21.50
2023-02-16T21:54:57.057Z,21.10
2023-02-16T21:56:59.881Z,19.92
2023-02-16T21:59:02.435Z,20.02
2023-02-16T22:01:04.992Z,20.55
2023-02-16T22:03:08.477Z,19.63
2023-02-16T22:05:12.619Z,18.58
2023-02-16T22:07:14.931Z,18.58
2023-02-16T22:09:22.123Z,19.48
2023-02-16T22:11:24.876Z,19.25
2023-02-16T22:13:26.980Z,20.05
2023-02-16T22:15:29.697Z,20.50
2023-02-16T22:17:33.249Z,20.00
2023-02-16T22:19:35.614Z,20.27
2023-02-16T22:21:40.067Z,19.58
2023-02-16T22:23:42.566Z,19.25
2023-02-16T22:25:44.678Z,20.83
2023-02-16T22:27:47.054Z,19.42
2023-02-16T22:29:50.924Z,18.77
2023-02-16T22:31:53.388Z,19.50
2023-02-16T22:34:07.116Z,19.70
2023-02-16T22:36:13.905Z,21.30
2023-02-16T22:38:16.824Z,19.42
2023-02-16T22:40:19.445Z,19.52
2023-02-16T22:42:22.377Z,19.60
2023-02-16T22:44:24.822Z,20.15
2023-02-16T22:46:27.831Z,20.60
2023-02-16T22:48:30.243Z,20.27
2023-02-16T22:50:32.467Z,20.02
2023-02-16T22:52:36.486Z,19.83
2023-02-16T22:54:39.169Z,19.50
2023-02-16T22:56:41.748Z,21.17
2023-02-16T22:58:43.938Z,20.48
2023-02-16T23:00:47.616Z,20.02
2023-02-16T23:02:49.801Z,19.83
2023-02-16T23:04:56.567Z,21.27
2023-02-16T23:06:58.693Z,20.58
2023-02-16T23:09:07.966Z,19.92
2023-02-16T23:11:10.841Z,20.05
2023-02-16T23:13:13.275Z,20.35
2023-02-16T23:15:15.503Z,21.60
2023-02-16T23:17:18.007Z,20.65
2023-02-16T23:19:26.368Z,21.55
2023-02-16T23:21:31.843Z,20.35
2023-02-16T23:23:34.214Z,20.42
2023-02-16T23:25:36.683Z,21.85
2023-02-16T23:27:38.756Z,21.77
2023-02-16T23:29:41.156Z,21.27
2023-02-16T23:31:45.024Z,20.95
2023-02-16T23:33:48.230Z,20.65
2023-02-16T23:35:50.632Z,21.40
2023-02-16T23:37:53.005Z,20.10
2023-02-16T23:39:55.053Z,22.45
2023-02-16T23:41:57.471Z,21.70
2023-02-16T23:44:01.167Z,22.02
2023-02-16T23:46:04.829Z,21.90
2023-02-16T23:48:07.262Z,21.02
2023-02-16T23:50:09.895Z,21.27
2023-02-16T23:52:12.157Z,19.65
2023-02-16T23:54:14.516Z,20.20
2023-02-16T23:56:22.433Z,20.20
2023-02-16T23:58:32.174Z,20.25
